sensor_id;sensor_type;location;lat;lon;timestamp;P1;P2;P0
79317;PMS7003;68779;50.036;19.964;2023-07-30T00:25:54;8;5;4
79317;PMS7003;68779;50.036;19.964;2023-07-30T00:56:11;5;5;4
79317;PMS7003;68779;50.036;19.964;2023-07-30T01:26:32;7;6;4
79317;PMS7003;68779;50.036;19.964;2023-07-30T01:56:56;3;2;2
79317;PMS7003;68779;50.036;19.964;2023-07-30T02:27:11;2;2;2
79317;PMS7003;68779;50.036;19.964;2023-07-30T02:57:24;3;2;2
79317;PMS7003;68779;50.036;19.964;2023-07-30T03:27:39;3;3;2
79317;PMS7003;68779;50.036;19.964;2023-07-30T03:57:53;2;2;1
79317;PMS7003;68779;50.036;19.964;2023-07-30T04:28:07;3;3;2
79317;PMS7003;68779;50.036;19.964;2023-07-30T04:58:20;2;2;2
79317;PMS7003;68779;50.036;19.964;2023-07-30T05:28:37;3;3;2
79317;PMS7003;68779;50.036;19.964;2023-07-30T05:58:53;1;0;0
79317;PMS7003;68779;50.036;19.964;2023-07-30T06:29:09;0;0;0
79317;PMS7003;68779;50.036;19.964;2023-07-30T06:59:25;0;0;0
79317;PMS7003;68779;50.036;19.964;2023-07-30T07:29:43;0;0;0
79317;PMS7003;68779;50.036;19.964;2023-07-30T08:00:00;0;0;0
79317;PMS7003;68779;50.036;19.964;2023-07-30T08:30:15;3;3;3
79317;PMS7003;68779;50.036;19.964;2023-07-30T09:00:36;3;2;2
79317;PMS7003;68779;50.036;19.964;2023-07-30T09:30:52;3;3;2
79317;PMS7003;68779;50.036;19.964;2023-07-30T10:18:21;5;5;4
79317;PMS7003;68779;50.036;19.964;2023-07-30T10:48:37;5;5;3
79317;PMS7003;68779;50.036;19.964;2023-07-30T11:18:55;3;3;2
79317;PMS7003;68779;50.036;19.964;2023-07-30T11:49:13;4;4;3
79317;PMS7003;68779;50.036;19.964;2023-07-30T12:19:35;3;3;2
79317;PMS7003;68779;50.036;19.964;2023-07-30T12:49:54;4;4;3
79317;PMS7003;68779;50.036;19.964;2023-07-30T13:20:08;4;4;3
79317;PMS7003;68779;50.036;19.964;2023-07-30T13:50:22;2;2;2
79317;PMS7003;68779;50.036;19.964;2023-07-30T14:20:37;3;3;3
79317;PMS7003;68779;50.036;19.964;2023-07-30T14:50:52;3;3;2
79317;PMS7003;68779;50.036;19.964;2023-07-30T15:21:11;2;2;2
79317;PMS7003;68779;50.036;19.964;2023-07-30T15:51:25;4;4;3
79317;PMS7003;68779;50.036;19.964;2023-07-30T16:21:44;2;2;2
79317;PMS7003;68779;50.036;19.964;2023-07-30T16:52:04;1;1;1
79317;PMS7003;68779;50.036;19.964;2023-07-30T17:22:18;2;2;2
79317;PMS7003;68779;50.036;19.964;2023-07-30T17:52:34;2;1;1
79317;PMS7003;68779;50.036;19.964;2023-07-30T18:22:49;2;2;2
79317;PMS7003;68779;50.036;19.964;2023-07-30T18:53:04;3;3;2
79317;PMS7003;68779;50.036;19.964;2023-07-30T19:23:18;6;6;5
79317;PMS7003;68779;50.036;19.964;2023-07-30T19:53:34;8;7;6
79317;PMS7003;68779;50.036;19.964;2023-07-30T20:23:50;5;5;4
79317;PMS7003;68779;50.036;19.964;2023-07-30T20:54:04;6;6;3
79317;PMS7003;68779;50.036;19.964;2023-07-30T21:24:29;5;5;5
79317;PMS7003;68779;50.036;19.964;2023-07-30T21:54:43;4;3;2
79317;PMS7003;68779;50.036;19.964;2023-07-30T22:24:57;6;6;5
79317;PMS7003;68779;50.036;19.964;2023-07-30T22:55:10;5;5;5
79317;PMS7003;68779;50.036;19.964;2023-07-30T23:25:24;5;5;4
79317;PMS7003;68779;50.036;19.964;2023-07-30T23:55:39;6;5;5
